sensor_id;sensor_type;location;lat;lon;timestamp;pressure;altitude;pressure_sealevel;temperature;humidity
70011;BME280;59543;37.950;-122.338;2023-03-16T00:00:52;101395.06;;;16.99;45.03
70011;BME280;59543;37.950;-122.338;2023-03-16T00:03:18;101396.59;;;16.93;44.92
70011;BME280;59543;37.950;-122.338;2023-03-16T00:05:47;101398.97;;;16.96;45.51
70011;BME280;59543;37.950;-122.338;2023-03-16T00:08:14;101404.09;;;16.91;44.68
70011;BME280;59543;37.950;-122.338;2023-03-16T00:10:40;101401.91;;;16.70;45.08
70011;BME280;59543;37.950;-122.338;2023-03-16T00:13:17;101399.69;;;16.65;45.45
70011;BME280;59543;37.950;-122.338;2023-03-16T00:18:16;101389.66;;;16.66;45.23
70011;BME280;59543;37.950;-122.338;2023-03-16T00:20:42;101390.06;;;16.55;45.71
70011;BME280;59543;37.950;-122.338;2023-03-16T00:23:08;101384.63;;;16.38;45.92
70011;BME280;59543;37.950;-122.338;2023-03-16T00:25:34;101387.19;;;16.40;46.95
70011;BME280;59543;37.950;-122.338;2023-03-16T00:28:00;101392.97;;;16.37;46.23
70011;BME280;59543;37.950;-122.338;2023-03-16T00:30:28;101397.19;;;16.31;46.10
70011;BME280;59543;37.950;-122.338;2023-03-16T00:32:54;101395.66;;;16.12;46.68
70011;BME280;59543;37.950;-122.338;2023-03-16T00:35:20;101398.22;;;16.22;45.88
70011;BME280;59543;37.950;-122.338;2023-03-16T00:37:46;101402.28;;;16.26;47.73
70011;BME280;59543;37.950;-122.338;2023-03-16T00:40:12;101409.91;;;16.06;47.57
70011;BME280;59543;37.950;-122.338;2023-03-16T00:42:38;101406.66;;;15.94;47.43
70011;BME280;59543;37.950;-122.338;2023-03-16T00:45:04;101407.53;;;15.95;47.32
70011;BME280;59543;37.950;-122.338;2023-03-16T00:47:31;101409.41;;;15.86;47.16
70011;BME280;59543;37.950;-122.338;2023-03-16T00:49:57;101409.34;;;15.70;46.45
70011;BME280;59543;37.950;-122.338;2023-03-16T00:52:24;101408.09;;;15.48;46.48
70011;BME280;59543;37.950;-122.338;2023-03-16T00:54:51;101407.16;;;15.31;47.24
70011;BME280;59543;37.950;-122.338;2023-03-16T00:57:19;101409.53;;;15.26;47.55
70011;BME280;59543;37.950;-122.338;2023-03-16T00:59:46;101400.47;;;15.09;48.33
70011;BME280;59543;37.950;-122.338;2023-03-16T01:02:12;101407.63;;;15.18;48.40
70011;BME280;59543;37.950;-122.338;2023-03-16T01:04:38;101403.28;;;15.25;48.45
70011;BME280;59543;37.950;-122.338;2023-03-16T01:07:09;101397.63;;;15.19;47.97
70011;BME280;59543;37.950;-122.338;2023-03-16T01:09:37;101409.38;;;14.93;48.81
70011;BME280;59543;37.950;-122.338;2023-03-16T01:12:03;101409.38;;;14.93;48.73
70011;BME280;59543;37.950;-122.338;2023-03-16T01:14:30;101410.56;;;14.91;49.18
70011;BME280;59543;37.950;-122.338;2023-03-16T01:16:57;101411.91;;;14.95;48.15
70011;BME280;59543;37.950;-122.338;2023-03-16T01:19:22;101415.19;;;14.72;48.27
70011;BME280;59543;37.950;-122.338;2023-03-16T01:21:49;101413.66;;;14.70;49.14
70011;BME280;59543;37.950;-122.338;2023-03-16T01:24:15;101420.66;;;14.54;50.00
70011;BME280;59543;37.950;-122.338;2023-03-16T01:26:40;101419.94;;;14.52;49.62
70011;BME280;59543;37.950;-122.338;2023-03-16T01:29:06;101421.81;;;14.52;49.74
70011;BME280;59543;37.950;-122.338;2023-03-16T01:31:32;101424.09;;;14.47;49.33
70011;BME280;59543;37.950;-122.338;2023-03-16T01:33:58;101422.97;;;14.31;49.95
70011;BME280;59543;37.950;-122.338;2023-03-16T01:36:25;101424.63;;;14.24;49.73
70011;BME280;59543;37.950;-122.338;2023-03-16T01:38:51;101425.69;;;14.13;50.71
70011;BME280;59543;37.950;-122.338;2023-03-16T01:41:16;101423.47;;;14.09;50.87
70011;BME280;59543;37.950;-122.338;2023-03-16T01:43:42;101425.63;;;14.05;50.07
70011;BME280;59543;37.950;-122.338;2023-03-16T01:46:13;101424.47;;;13.90;51.43
70011;BME280;59543;37.950;-122.338;2023-03-16T01:51:14;101426.31;;;13.89;49.80
70011;BME280;59543;37.950;-122.338;2023-03-16T01:53:40;101421.00;;;13.98;50.41
70011;BME280;59543;37.950;-122.338;2023-03-16T01:56:09;101437.38;;;13.78;50.46
70011;BME280;59543;37.950;-122.338;2023-03-16T01:58:37;101437.84;;;13.46;51.65
70011;BME280;59543;37.950;-122.338;2023-03-16T02:01:03;101440.25;;;13.49;52.31
70011;BME280;59543;37.950;-122.338;2023-03-16T02:03:29;101438.69;;;13.46;51.42
70011;BME280;59543;37.950;-122.338;2023-03-16T02:06:00;101441.41;;;13.46;51.37
70011;BME280;59543;37.950;-122.338;2023-03-16T02:08:27;101437.19;;;13.34;51.45
70011;BME280;59543;37.950;-122.338;2023-03-16T02:10:54;101437.34;;;13.23;52.15
70011;BME280;59543;37.950;-122.338;2023-03-16T02:13:21;101428.28;;;13.14;52.78
70011;BME280;59543;37.950;-122.338;2023-03-16T02:15:48;101426.06;;;13.10;53.28
70011;BME280;59543;37.950;-122.338;2023-03-16T02:18:14;101425.09;;;13.01;53.16
70011;BME280;59543;37.950;-122.338;2023-03-16T02:23:18;101418.72;;;12.92;53.92
70011;BME280;59543;37.950;-122.338;2023-03-16T02:25:51;101419.19;;;12.88;53.57
70011;BME280;59543;37.950;-122.338;2023-03-16T02:28:40;101426.31;;;12.79;53.73
70011;BME280;59543;37.950;-122.338;2023-03-16T02:31:12;101424.63;;;12.68;54.95
70011;BME280;59543;37.950;-122.338;2023-03-16T02:33:38;101426.63;;;12.56;55.54
70011;BME280;59543;37.950;-122.338;2023-03-16T02:36:05;101419.69;;;12.54;55.54
70011;BME280;59543;37.950;-122.338;2023-03-16T02:38:31;101428.91;;;12.51;55.61
70011;BME280;59543;37.950;-122.338;2023-03-16T02:40:58;101422.41;;;12.44;56.13
70011;BME280;59543;37.950;-122.338;2023-03-16T02:43:27;101426.25;;;12.32;56.47
70011;BME280;59543;37.950;-122.338;2023-03-16T02:45:58;101427.13;;;12.23;57.18
70011;BME280;59543;37.950;-122.338;2023-03-16T02:48:33;101431.41;;;12.16;58.13
70011;BME280;59543;37.950;-122.338;2023-03-16T02:51:00;101436.06;;;12.04;59.31
70011;BME280;59543;37.950;-122.338;2023-03-16T02:53:26;101438.91;;;12.02;59.05
70011;BME280;59543;37.950;-122.338;2023-03-16T02:55:52;101447.72;;;11.95;59.73
70011;BME280;59543;37.950;-122.338;2023-03-16T02:58:18;101451.66;;;11.90;60.26
70011;BME280;59543;37.950;-122.338;2023-03-16T03:00:44;101448.97;;;11.90;60.05
70011;BME280;59543;37.950;-122.338;2023-03-16T03:03:10;101444.09;;;11.75;60.91
70011;BME280;59543;37.950;-122.338;2023-03-16T03:05:36;101450.44;;;11.64;61.58
70011;BME280;59543;37.950;-122.338;2023-03-16T03:08:03;101458.13;;;11.59;61.40
70011;BME280;59543;37.950;-122.338;2023-03-16T03:10:29;101455.59;;;11.27;62.82
70011;BME280;59543;37.950;-122.338;2023-03-16T03:12:55;101458.16;;;11.28;63.13
70011;BME280;59543;37.950;-122.338;2023-03-16T03:15:21;101455.53;;;11.07;64.10
70011;BME280;59543;37.950;-122.338;2023-03-16T03:17:48;101447.13;;;11.01;64.35
70011;BME280;59543;37.950;-122.338;2023-03-16T03:20:14;101447.50;;;10.65;65.67
70011;BME280;59543;37.950;-122.338;2023-03-16T03:22:42;101445.25;;;10.49;66.20
70011;BME280;59543;37.950;-122.338;2023-03-16T03:25:09;101444.63;;;10.36;66.87
70011;BME280;59543;37.950;-122.338;2023-03-16T03:27:35;101442.09;;;10.23;67.45
70011;BME280;59543;37.950;-122.338;2023-03-16T03:30:02;101438.09;;;10.18;67.63
70011;BME280;59543;37.950;-122.338;2023-03-16T03:32:28;101442.25;;;10.11;68.08
70011;BME280;59543;37.950;-122.338;2023-03-16T03:34:54;101441.59;;;9.97;68.24
70011;BME280;59543;37.950;-122.338;2023-03-16T03:37:20;101453.91;;;10.00;68.20
70011;BME280;59543;37.950;-122.338;2023-03-16T03:39:46;101451.72;;;10.05;68.15
70011;BME280;59543;37.950;-122.338;2023-03-16T03:42:12;101450.69;;;10.17;67.90
70011;BME280;59543;37.950;-122.338;2023-03-16T03:44:38;101451.78;;;10.15;67.86
70011;BME280;59543;37.950;-122.338;2023-03-16T03:47:04;101453.00;;;10.11;67.98
70011;BME280;59543;37.950;-122.338;2023-03-16T03:49:30;101450.06;;;9.81;68.92
70011;BME280;59543;37.950;-122.338;2023-03-16T03:51:56;101451.63;;;9.29;70.21
70011;BME280;59543;37.950;-122.338;2023-03-16T03:54:23;101461.75;;;9.14;71.56
70011;BME280;59543;37.950;-122.338;2023-03-16T03:56:52;101460.78;;;9.04;72.15
70011;BME280;59543;37.950;-122.338;2023-03-16T03:59:18;101455.75;;;8.77;72.92
70011;BME280;59543;37.950;-122.338;2023-03-16T04:01:44;101461.25;;;8.76;73.52
70011;BME280;59543;37.950;-122.338;2023-03-16T04:04:10;101462.00;;;8.89;73.46
70011;BME280;59543;37.950;-122.338;2023-03-16T04:06:36;101459.94;;;9.04;73.12
70011;BME280;59543;37.950;-122.338;2023-03-16T04:09:01;101460.78;;;8.82;73.40
70011;BME280;59543;37.950;-122.338;2023-03-16T04:11:27;101459.78;;;8.83;73.92
70011;BME280;59543;37.950;-122.338;2023-03-16T04:13:53;101455.91;;;8.76;74.25
70011;BME280;59543;37.950;-122.338;2023-03-16T04:16:19;101459.41;;;8.65;74.73
70011;BME280;59543;37.950;-122.338;2023-03-16T04:18:46;101462.53;;;8.47;75.19
70011;BME280;59543;37.950;-122.338;2023-03-16T04:21:15;101467.50;;;8.41;75.12
70011;BME280;59543;37.950;-122.338;2023-03-16T04:23:41;101459.84;;;8.12;76.95
70011;BME280;59543;37.950;-122.338;2023-03-16T04:26:07;101463.13;;;8.16;76.86
70011;BME280;59543;37.950;-122.338;2023-03-16T04:28:33;101465.50;;;8.32;76.57
70011;BME280;59543;37.950;-122.338;2023-03-16T04:31:03;101475.44;;;8.42;75.63
70011;BME280;59543;37.950;-122.338;2023-03-16T04:33:31;101480.81;;;8.54;75.28
70011;BME280;59543;37.950;-122.338;2023-03-16T04:35:57;101480.72;;;8.31;76.02
70011;BME280;59543;37.950;-122.338;2023-03-16T04:38:23;101471.72;;;8.32;76.03
70011;BME280;59543;37.950;-122.338;2023-03-16T04:40:49;101477.06;;;8.32;75.95
70011;BME280;59543;37.950;-122.338;2023-03-16T04:43:15;101471.78;;;8.19;76.74
70011;BME280;59543;37.950;-122.338;2023-03-16T04:45:41;101473.56;;;8.08;77.22
70011;BME280;59543;37.950;-122.338;2023-03-16T04:48:07;101467.81;;;8.01;77.70
70011;BME280;59543;37.950;-122.338;2023-03-16T04:50:34;101474.34;;;7.73;78.92
70011;BME280;59543;37.950;-122.338;2023-03-16T04:53:00;101472.25;;;7.65;79.39
70011;BME280;59543;37.950;-122.338;2023-03-16T04:55:26;101473.00;;;7.67;79.38
70011;BME280;59543;37.950;-122.338;2023-03-16T04:57:52;101468.19;;;7.60;80.00
70011;BME280;59543;37.950;-122.338;2023-03-16T05:00:18;101473.00;;;7.54;80.07
70011;BME280;59543;37.950;-122.338;2023-03-16T05:02:45;101479.78;;;7.47;80.92
70011;BME280;59543;37.950;-122.338;2023-03-16T05:05:12;101476.72;;;7.41;80.90
70011;BME280;59543;37.950;-122.338;2023-03-16T05:07:37;101478.75;;;7.37;81.33
70011;BME280;59543;37.950;-122.338;2023-03-16T05:10:06;101480.56;;;7.24;81.94
70011;BME280;59543;37.950;-122.338;2023-03-16T05:12:32;101482.06;;;7.28;82.25
70011;BME280;59543;37.950;-122.338;2023-03-16T05:14:58;101477.44;;;7.43;81.35
70011;BME280;59543;37.950;-122.338;2023-03-16T05:17:24;101483.09;;;7.51;80.75
70011;BME280;59543;37.950;-122.338;2023-03-16T05:19:50;101489.84;;;7.56;80.56
70011;BME280;59543;37.950;-122.338;2023-03-16T05:22:16;101495.63;;;7.50;80.53
70011;BME280;59543;37.950;-122.338;2023-03-16T05:24:42;101490.72;;;7.44;81.03
70011;BME280;59543;37.950;-122.338;2023-03-16T05:27:08;101491.97;;;7.51;80.26
70011;BME280;59543;37.950;-122.338;2023-03-16T05:29:33;101498.72;;;7.57;80.18
70011;BME280;59543;37.950;-122.338;2023-03-16T05:31:59;101507.50;;;7.59;79.69
70011;BME280;59543;37.950;-122.338;2023-03-16T05:34:25;101508.56;;;7.56;79.58
70011;BME280;59543;37.950;-122.338;2023-03-16T05:36:51;101509.63;;;7.54;79.74
70011;BME280;59543;37.950;-122.338;2023-03-16T05:39:17;101503.84;;;7.60;79.98
70011;BME280;59543;37.950;-122.338;2023-03-16T05:41:43;101506.75;;;7.57;79.34
70011;BME280;59543;37.950;-122.338;2023-03-16T05:44:09;101504.22;;;7.30;80.34
70011;BME280;59543;37.950;-122.338;2023-03-16T05:46:35;101498.78;;;7.19;80.82
70011;BME280;59543;37.950;-122.338;2023-03-16T05:49:01;101494.72;;;7.00;81.91
70011;BME280;59543;37.950;-122.338;2023-03-16T05:51:27;101492.25;;;6.97;82.17
70011;BME280;59543;37.950;-122.338;2023-03-16T05:53:53;101498.81;;;6.93;82.25
70011;BME280;59543;37.950;-122.338;2023-03-16T05:56:26;101493.44;;;6.93;82.19
70011;BME280;59543;37.950;-122.338;2023-03-16T05:58:52;101499.22;;;6.87;82.59
70011;BME280;59543;37.950;-122.338;2023-03-16T06:01:19;101500.41;;;6.83;82.85
70011;BME280;59543;37.950;-122.338;2023-03-16T06:03:45;101498.38;;;6.86;82.91
70011;BME280;59543;37.950;-122.338;2023-03-16T06:06:11;101500.94;;;6.75;83.25
70011;BME280;59543;37.950;-122.338;2023-03-16T06:08:37;101503.81;;;6.85;83.32
70011;BME280;59543;37.950;-122.338;2023-03-16T06:11:03;101503.28;;;6.93;82.89
70011;BME280;59543;37.950;-122.338;2023-03-16T06:13:29;101502.97;;;6.97;82.48
70011;BME280;59543;37.950;-122.338;2023-03-16T06:15:55;101504.91;;;6.95;82.83
70011;BME280;59543;37.950;-122.338;2023-03-16T06:18:21;101500.63;;;6.93;82.82
70011;BME280;59543;37.950;-122.338;2023-03-16T06:20:46;101495.06;;;6.96;82.48
70011;BME280;59543;37.950;-122.338;2023-03-16T06:23:13;101500.06;;;7.00;82.09
70011;BME280;59543;37.950;-122.338;2023-03-16T06:25:39;101499.00;;;7.03;82.30
70011;BME280;59543;37.950;-122.338;2023-03-16T06:28:05;101504.38;;;6.90;83.25
70011;BME280;59543;37.950;-122.338;2023-03-16T06:30:31;101507.13;;;6.88;83.78
70011;BME280;59543;37.950;-122.338;2023-03-16T06:32:57;101503.50;;;6.90;83.55
70011;BME280;59543;37.950;-122.338;2023-03-16T06:35:24;101503.28;;;6.80;84.10
70011;BME280;59543;37.950;-122.338;2023-03-16T06:37:50;101497.09;;;6.92;83.28
70011;BME280;59543;37.950;-122.338;2023-03-16T06:40:16;101501.34;;;6.95;82.75
70011;BME280;59543;37.950;-122.338;2023-03-16T06:42:42;101504.38;;;6.90;82.94
70011;BME280;59543;37.950;-122.338;2023-03-16T06:45:08;101508.75;;;6.91;83.10
70011;BME280;59543;37.950;-122.338;2023-03-16T06:47:35;101503.72;;;6.99;82.94
70011;BME280;59543;37.950;-122.338;2023-03-16T06:50:01;101497.31;;;6.89;82.63
70011;BME280;59543;37.950;-122.338;2023-03-16T06:52:27;101499.75;;;6.79;83.81
70011;BME280;59543;37.950;-122.338;2023-03-16T06:54:53;101500.84;;;6.90;83.45
70011;BME280;59543;37.950;-122.338;2023-03-16T06:57:19;101510.91;;;6.86;83.04
70011;BME280;59543;37.950;-122.338;2023-03-16T06:59:45;101522.31;;;6.88;83.02
70011;BME280;59543;37.950;-122.338;2023-03-16T07:02:11;101522.22;;;6.90;83.24
70011;BME280;59543;37.950;-122.338;2023-03-16T07:04:39;101521.81;;;6.96;83.05
70011;BME280;59543;37.950;-122.338;2023-03-16T07:07:04;101526.53;;;6.92;82.78
70011;BME280;59543;37.950;-122.338;2023-03-16T07:09:30;101533.66;;;6.92;83.10
70011;BME280;59543;37.950;-122.338;2023-03-16T07:11:56;101535.28;;;6.94;83.45
70011;BME280;59543;37.950;-122.338;2023-03-16T07:14:22;101544.06;;;6.96;84.50
70011;BME280;59543;37.950;-122.338;2023-03-16T07:16:50;101541.72;;;7.04;85.06
70011;BME280;59543;37.950;-122.338;2023-03-16T07:19:17;101546.63;;;7.10;84.35
70011;BME280;59543;37.950;-122.338;2023-03-16T07:21:43;101546.72;;;7.09;84.87
70011;BME280;59543;37.950;-122.338;2023-03-16T07:24:09;101531.44;;;7.11;84.74
70011;BME280;59543;37.950;-122.338;2023-03-16T07:26:35;101531.19;;;6.88;85.02
70011;BME280;59543;37.950;-122.338;2023-03-16T07:29:02;101539.47;;;6.98;84.48
70011;BME280;59543;37.950;-122.338;2023-03-16T07:31:30;101542.88;;;7.00;83.65
70011;BME280;59543;37.950;-122.338;2023-03-16T07:33:57;101544.06;;;6.96;83.58
70011;BME280;59543;37.950;-122.338;2023-03-16T07:36:22;101554.97;;;6.93;83.69
70011;BME280;59543;37.950;-122.338;2023-03-16T07:38:48;101551.00;;;6.86;84.61
70011;BME280;59543;37.950;-122.338;2023-03-16T07:41:15;101548.97;;;6.90;84.70
70011;BME280;59543;37.950;-122.338;2023-03-16T07:43:41;101541.03;;;6.88;85.05
70011;BME280;59543;37.950;-122.338;2023-03-16T07:46:09;101543.63;;;6.90;85.26
70011;BME280;59543;37.950;-122.338;2023-03-16T07:48:40;101545.44;;;6.89;85.88
70011;BME280;59543;37.950;-122.338;2023-03-16T07:51:07;101542.03;;;6.87;85.69
70011;BME280;59543;37.950;-122.338;2023-03-16T07:53:33;101542.66;;;6.91;85.47
70011;BME280;59543;37.950;-122.338;2023-03-16T07:55:59;101544.91;;;6.84;85.70
70011;BME280;59543;37.950;-122.338;2023-03-16T07:58:25;101548.72;;;6.80;85.35
70011;BME280;59543;37.950;-122.338;2023-03-16T08:00:55;101542.66;;;6.78;85.77
70011;BME280;59543;37.950;-122.338;2023-03-16T08:03:21;101542.44;;;6.81;85.16
70011;BME280;59543;37.950;-122.338;2023-03-16T08:05:46;101539.75;;;6.81;85.98
70011;BME280;59543;37.950;-122.338;2023-03-16T08:08:12;101536.13;;;6.82;85.72
70011;BME280;59543;37.950;-122.338;2023-03-16T08:10:40;101538.03;;;6.80;86.07
70011;BME280;59543;37.950;-122.338;2023-03-16T08:13:06;101537.31;;;6.78;86.52
70011;BME280;59543;37.950;-122.338;2023-03-16T08:15:32;101539.97;;;6.78;86.17
70011;BME280;59543;37.950;-122.338;2023-03-16T08:17:58;101544.34;;;6.79;85.65
70011;BME280;59543;37.950;-122.338;2023-03-16T08:20:27;101547.66;;;6.70;85.33
70011;BME280;59543;37.950;-122.338;2023-03-16T08:22:53;101549.03;;;6.62;87.02
70011;BME280;59543;37.950;-122.338;2023-03-16T08:25:19;101553.97;;;6.69;86.39
70011;BME280;59543;37.950;-122.338;2023-03-16T08:27:45;101545.41;;;6.63;87.29
70011;BME280;59543;37.950;-122.338;2023-03-16T08:30:12;101549.78;;;6.64;87.00
70011;BME280;59543;37.950;-122.338;2023-03-16T08:32:38;101550.53;;;6.67;87.31
70011;BME280;59543;37.950;-122.338;2023-03-16T08:35:06;101545.75;;;6.72;87.68
70011;BME280;59543;37.950;-122.338;2023-03-16T08:37:32;101544.97;;;6.70;87.34
70011;BME280;59543;37.950;-122.338;2023-03-16T08:39:58;101539.06;;;6.64;87.17
70011;BME280;59543;37.950;-122.338;2023-03-16T08:42:25;101545.81;;;6.57;87.43
70011;BME280;59543;37.950;-122.338;2023-03-16T08:44:50;101542.78;;;6.49;87.43
70011;BME280;59543;37.950;-122.338;2023-03-16T08:47:20;101536.72;;;6.47;87.14
70011;BME280;59543;37.950;-122.338;2023-03-16T08:49:46;101542.69;;;6.38;87.15
70011;BME280;59543;37.950;-122.338;2023-03-16T08:52:12;101551.63;;;6.37;87.15
70011;BME280;59543;37.950;-122.338;2023-03-16T08:54:38;101542.47;;;6.41;86.47
70011;BME280;59543;37.950;-122.338;2023-03-16T08:57:04;101543.72;;;6.35;86.89
70011;BME280;59543;37.950;-122.338;2023-03-16T08:59:30;101542.19;;;6.31;86.77
70011;BME280;59543;37.950;-122.338;2023-03-16T09:01:56;101545.00;;;6.30;86.56
70011;BME280;59543;37.950;-122.338;2023-03-16T09:04:21;101553.25;;;6.12;87.60
70011;BME280;59543;37.950;-122.338;2023-03-16T09:06:48;101553.22;;;6.00;88.23
70011;BME280;59543;37.950;-122.338;2023-03-16T09:09:16;101558.63;;;5.98;88.59
70011;BME280;59543;37.950;-122.338;2023-03-16T09:11:42;101559.75;;;6.08;87.77
70011;BME280;59543;37.950;-122.338;2023-03-16T09:14:08;101549.16;;;6.07;87.48
70011;BME280;59543;37.950;-122.338;2023-03-16T09:16:36;101550.72;;;5.97;87.50
70011;BME280;59543;37.950;-122.338;2023-03-16T09:19:03;101544.34;;;5.85;87.85
70011;BME280;59543;37.950;-122.338;2023-03-16T09:21:30;101549.97;;;5.80;87.99
70011;BME280;59543;37.950;-122.338;2023-03-16T09:23:56;101554.06;;;5.86;87.24
70011;BME280;59543;37.950;-122.338;2023-03-16T09:26:22;101561.31;;;5.84;87.20
70011;BME280;59543;37.950;-122.338;2023-03-16T09:28:47;101558.94;;;5.79;86.78
70011;BME280;59543;37.950;-122.338;2023-03-16T09:31:17;101566.28;;;5.76;86.55
70011;BME280;59543;37.950;-122.338;2023-03-16T09:33:44;101565.91;;;5.82;86.53
70011;BME280;59543;37.950;-122.338;2023-03-16T09:36:10;101571.44;;;5.79;87.25
70011;BME280;59543;37.950;-122.338;2023-03-16T09:38:37;101573.44;;;5.75;86.55
70011;BME280;59543;37.950;-122.338;2023-03-16T09:43:50;101573.84;;;5.55;87.90
70011;BME280;59543;37.950;-122.338;2023-03-16T09:48:54;101587.97;;;5.57;87.24
70011;BME280;59543;37.950;-122.338;2023-03-16T09:51:34;101583.66;;;5.54;87.08
70011;BME280;59543;37.950;-122.338;2023-03-16T09:54:01;101588.22;;;5.52;87.32
70011;BME280;59543;37.950;-122.338;2023-03-16T09:56:39;101584.91;;;5.48;87.39
70011;BME280;59543;37.950;-122.338;2023-03-16T09:59:10;101584.03;;;5.34;88.58
70011;BME280;59543;37.950;-122.338;2023-03-16T10:04:20;101588.31;;;5.22;89.92
70011;BME280;59543;37.950;-122.338;2023-03-16T10:09:40;101586.50;;;5.22;89.93
70011;BME280;59543;37.950;-122.338;2023-03-16T10:12:07;101592.88;;;5.34;89.41
70011;BME280;59543;37.950;-122.338;2023-03-16T10:17:00;101598.88;;;5.38;88.92
70011;BME280;59543;37.950;-122.338;2023-03-16T10:22:15;101596.34;;;5.36;88.23
70011;BME280;59543;37.950;-122.338;2023-03-16T10:24:44;101599.09;;;5.35;88.21
70011;BME280;59543;37.950;-122.338;2023-03-16T10:27:18;101602.91;;;5.31;88.62
70011;BME280;59543;37.950;-122.338;2023-03-16T10:29:47;101602.78;;;5.32;88.54
70011;BME280;59543;37.950;-122.338;2023-03-16T10:32:15;101604.53;;;5.33;88.47
70011;BME280;59543;37.950;-122.338;2023-03-16T10:34:42;101611.88;;;5.30;88.38
70011;BME280;59543;37.950;-122.338;2023-03-16T10:37:11;101605.66;;;5.29;88.73
70011;BME280;59543;37.950;-122.338;2023-03-16T10:39:38;101604.53;;;5.33;88.44
70011;BME280;59543;37.950;-122.338;2023-03-16T10:42:12;101611.69;;;5.33;88.05
70011;BME280;59543;37.950;-122.338;2023-03-16T10:44:39;101616.31;;;5.29;88.18
70011;BME280;59543;37.950;-122.338;2023-03-16T10:47:06;101617.00;;;5.33;88.10
70011;BME280;59543;37.950;-122.338;2023-03-16T10:49:39;101605.47;;;5.32;88.17
70011;BME280;59543;37.950;-122.338;2023-03-16T10:54:54;101607.19;;;5.33;88.58
70011;BME280;59543;37.950;-122.338;2023-03-16T10:59:59;101603.91;;;5.14;91.78
70011;BME280;59543;37.950;-122.338;2023-03-16T11:02:31;101597.53;;;5.16;91.73
70011;BME280;59543;37.950;-122.338;2023-03-16T11:05:09;101596.38;;;5.20;91.23
70011;BME280;59543;37.950;-122.338;2023-03-16T11:07:35;101596.13;;;5.25;92.15
70011;BME280;59543;37.950;-122.338;2023-03-16T11:10:11;101601.00;;;5.33;92.11
70011;BME280;59543;37.950;-122.338;2023-03-16T11:12:38;101595.97;;;5.42;92.99
70011;BME280;59543;37.950;-122.338;2023-03-16T11:15:08;101598.06;;;5.52;92.88
70011;BME280;59543;37.950;-122.338;2023-03-16T11:17:38;101604.81;;;5.57;93.38
70011;BME280;59543;37.950;-122.338;2023-03-16T11:20:10;101605.28;;;5.64;93.05
70011;BME280;59543;37.950;-122.338;2023-03-16T11:22:39;101596.97;;;5.68;93.33
70011;BME280;59543;37.950;-122.338;2023-03-16T11:25:13;101595.00;;;5.72;93.46
70011;BME280;59543;37.950;-122.338;2023-03-16T11:30:21;101604.31;;;5.79;92.96
70011;BME280;59543;37.950;-122.338;2023-03-16T11:32:51;101595.28;;;5.96;92.58
70011;BME280;59543;37.950;-122.338;2023-03-16T11:46:06;101610.91;;;6.02;92.30
70011;BME280;59543;37.950;-122.338;2023-03-16T11:53:46;101615.19;;;6.05;93.09
70011;BME280;59543;37.950;-122.338;2023-03-16T11:56:15;101615.53;;;6.13;93.56
70011;BME280;59543;37.950;-122.338;2023-03-16T12:06:48;101608.75;;;6.49;94.91
70011;BME280;59543;37.950;-122.338;2023-03-16T12:12:28;101601.66;;;6.62;94.94
70011;BME280;59543;37.950;-122.338;2023-03-16T12:17:40;101608.78;;;6.61;94.76
70011;BME280;59543;37.950;-122.338;2023-03-16T12:20:13;101607.75;;;6.64;94.73
70011;BME280;59543;37.950;-122.338;2023-03-16T12:22:51;101610.97;;;6.69;94.82
70011;BME280;59543;37.950;-122.338;2023-03-16T12:25:19;101608.38;;;6.68;94.78
70011;BME280;59543;37.950;-122.338;2023-03-16T12:27:53;101617.09;;;6.71;94.62
70011;BME280;59543;37.950;-122.338;2023-03-16T12:32:54;101627.00;;;6.69;93.85
70011;BME280;59543;37.950;-122.338;2023-03-16T12:35:32;101629.13;;;6.64;94.43
70011;BME280;59543;37.950;-122.338;2023-03-16T12:40:32;101645.50;;;6.59;94.71
70011;BME280;59543;37.950;-122.338;2023-03-16T12:43:04;101637.47;;;6.59;94.23
70011;BME280;59543;37.950;-122.338;2023-03-16T12:45:39;101643.00;;;6.56;93.96
70011;BME280;59543;37.950;-122.338;2023-03-16T12:50:52;101645.94;;;6.39;93.95
70011;BME280;59543;37.950;-122.338;2023-03-16T12:55:52;101644.81;;;6.29;94.10
70011;BME280;59543;37.950;-122.338;2023-03-16T12:58:21;101645.69;;;6.29;94.77
70011;BME280;59543;37.950;-122.338;2023-03-16T13:00:53;101644.44;;;6.35;95.11
70011;BME280;59543;37.950;-122.338;2023-03-16T13:03:20;101640.88;;;6.34;94.78
70011;BME280;59543;37.950;-122.338;2023-03-16T13:05:50;101642.03;;;6.30;94.72
70011;BME280;59543;37.950;-122.338;2023-03-16T13:08:17;101653.69;;;6.29;94.73
70011;BME280;59543;37.950;-122.338;2023-03-16T13:13:25;101646.53;;;6.30;94.83
70011;BME280;59543;37.950;-122.338;2023-03-16T13:16:21;101643.19;;;6.26;94.95
70011;BME280;59543;37.950;-122.338;2023-03-16T13:18:39;101656.44;;;6.28;94.88
70011;BME280;59543;37.950;-122.338;2023-03-16T13:21:15;101658.47;;;6.24;95.14
70011;BME280;59543;37.950;-122.338;2023-03-16T13:26:15;101656.59;;;6.12;94.79
70011;BME280;59543;37.950;-122.338;2023-03-16T13:28:41;101653.72;;;6.15;94.79
70011;BME280;59543;37.950;-122.338;2023-03-16T13:31:21;101651.44;;;6.09;94.40
70011;BME280;59543;37.950;-122.338;2023-03-16T13:33:49;101665.00;;;6.06;94.66
70011;BME280;59543;37.950;-122.338;2023-03-16T13:36:18;101658.09;;;6.02;94.30
70011;BME280;59543;37.950;-122.338;2023-03-16T13:38:53;101660.22;;;5.97;94.46
70011;BME280;59543;37.950;-122.338;2023-03-16T13:41:20;101660.47;;;5.92;94.64
70011;BME280;59543;37.950;-122.338;2023-03-16T13:43:46;101669.28;;;5.94;94.91
70011;BME280;59543;37.950;-122.338;2023-03-16T13:46:12;101665.81;;;5.92;94.66